Aviation Digital Data Service (ADDS)

Output produced by METARs form (0724 UTC 24 March 2019)
found at http://www.aviationweather.gov/metar/data/
 
DFOO 240700Z 36004KT CAVOK 25/11 Q1011
TAF DFOO 240500Z 2406/2506 02008KT CAVOK
       
DFFD 240700Z 01003KT CAVOK 26/00 Q1010 NOSIG
TAF DFFD 240500Z 2406/2512 02008KT CAVOK